Terminal Aerodrome Forecast
Issued by NWS Des Moines, IA

Home | Current Version | Previous Version | Text Only | Print | Product List | Glossary On
Versions: 1 2 3 4 5 6 7 8 9 10 11 12 13 14 15 16 17 18 19 20 21
000
FTUS43 KDMX 092338
TAFALO
TAF
KALO 092338Z 1000/1024 27003KT P6SM SCT050 OVC090
     FM101600 13004KT P6SM OVC025
     FM101800 14006KT 3SM -SN OVC015
     FM102000 13010KT 1SM -SN OVC010=

USA.gov is the U.S. government's official web portal to all federal, state and local government web resources and services.